Sunday, August 28, 2016
10:31 UTC
  |  Log In   |  Register Free
Airport Search:

Enid Woodring Regional Airport
(KWDG)

FAA data valid effective Jul 21 2016 - Sep 15 2016 (unless otherwise noted).

 
 
 
 
 
 
 
 
 
 
 
 
 
 
Current Aviation Weather for KWDG

Weather Summary


The most recent METAR observation for WDG was updated at: 12:50 UTC
METAR for WDG is not available. Closest METAR is for
METAR

METAR KWDG 281015Z 15003KT 10SM CLR 22/22 A3005 RMK AO2

METAR KWDG 280955Z 00000KT 10SM CLR 22/22 A3005 RMK AO2

METAR KWDG 280935Z 00000KT 10SM CLR 22/21 A3005 RMK AO2

METAR KWDG 280915Z 00000KT 10SM CLR 22/21 A3005 RMK AO2

METAR KWDG 280855Z 24003KT 10SM CLR 22/21 A3004 RMK AO2

METAR KWDG 280835Z 16003KT 10SM CLR 22/21 A3003 RMK AO2

METAR KWDG 280815Z 15004KT 10SM CLR 22/21 A3003 RMK AO2

METAR KWDG 280755Z 16004KT 10SM CLR 22/21 A3002 RMK AO2

METAR KWDG 280735Z 17005KT 10SM CLR 23/21 A3002 RMK AO2

METAR KBKN METAR not available

METAR KEND 280958Z 17005KT 10SM FEW140 23/21 A3005 RMK AO2 SLP164 T02260211 $

TAF for WDG is not available.
TAF

KEND - TAF KEND 281000Z 2810/2916 16006KT 9999 FEW035 QNH3000INS

KEND - BECMG 2814/2815 13009KT 9999 FEW035 QNH3010INS TX30/2820Z TN20/2812Z =

GlobalAir.com is loading additional information.
 Current Weather at WDG
72.0 F° (22.0 C°)

Southwest winds at 3.5 mph
Pressure:
30.04 in
Humidity:
94%
Wind:
Southwest at 3.5 mph
Dew Point:
69.8 F° (21.0 C°)
Visibility:
10.00 mi
WDG NOAA Radar




Find All Airport Services Find A Hotel Find A Rental Car Find A Golf Course Find A Restaurant $100 Hamburger



Airport Weather Forecast for KWDG

Translated METAR for KWDG (1015 UTC)
METAR:
KWDG 281015Z AUTO Enid Woodring Regional, Enid, OK (KWDG). Aug 28, 1015Z, Automated. Wind from 150° at 3 knots, 10 statute miles visibility, Clear Skies, Temperature 22°C, Dewpoint 22°C, Altimeter is 30.05. Remarks: automated station with precipitation discriminator
Conditions at:
KWDG (Enid Woodring Rgnl, OK) observed 1015 UTC 28 August 2016
Temperature:
72.0 F° (22.0 C°)
Dewpoint:
not reported - refer to area weather report
Pressure:
30.04 Hg
Winds:
Southwest at 3.5 MPH (3 KT)
Visibility:
10.00
Ceiling:
at least 12,000 feet AGL
Clouds:
not reported - refer to area weather report
Remarks:
site is un-manned

Translated TAF for TAF for WDG is not available. Refer to local area forecast.
FBO's on the Field
FBO Company Facility Photos Services Transportation Aviation Fuel Prices: Prices include tax
Catering Weather Repair Courtesy Rental Type 100LL JetA JetA+ MOGAS 8087
 
Enid Woodring Regional Airport

This FBO has not yet been rated
FS:Phillips 66
Last Updated: Aug-19
Login to update fuel prices
SS:
Contact Enid Woodring Regional AirportMore FBO Information
 
Add another FBO Facility Photos Catering Weather Repair Courtesy Rental Type 100LL JetA JetA+ MOGAS 8087
Services Transportation Aviation Fuel Prices: Prices include tax


model-print
model-print
model-print
model-print